sensor_id;sensor_type;location;lat;lon;timestamp;P1;durP1;ratioP1;P2;durP2;ratioP2
67191;SDS011;54120;53.504;49.426;2022-08-05T00:02:05;14.73;;;7.53;;
67191;SDS011;54120;53.504;49.426;2022-08-05T00:04:31;12.23;;;5.68;;
67191;SDS011;54120;53.504;49.426;2022-08-05T00:06:57;16.35;;;6.43;;
67191;SDS011;54120;53.504;49.426;2022-08-05T00:09:23;19.67;;;9.95;;
67191;SDS011;54120;53.504;49.426;2022-08-05T00:11:49;19.00;;;10.32;;
67191;SDS011;54120;53.504;49.426;2022-08-05T00:14:16;41.53;;;25.30;;
67191;SDS011;54120;53.504;49.426;2022-08-05T00:16:43;51.15;;;31.92;;
67191;SDS011;54120;53.504;49.426;2022-08-05T00:19:10;20.55;;;12.63;;
67191;SDS011;54120;53.504;49.426;2022-08-05T00:21:37;9.75;;;5.88;;
67191;SDS011;54120;53.504;49.426;2022-08-05T00:24:03;14.75;;;9.05;;
67191;SDS011;54120;53.504;49.426;2022-08-05T00:26:30;31.05;;;17.77;;
67191;SDS011;54120;53.504;49.426;2022-08-05T00:28:56;10.23;;;8.02;;
67191;SDS011;54120;53.504;49.426;2022-08-05T00:31:22;17.27;;;9.27;;
67191;SDS011;54120;53.504;49.426;2022-08-05T00:33:48;36.45;;;22.15;;
67191;SDS011;54120;53.504;49.426;2022-08-05T00:36:14;7.22;;;6.40;;
67191;SDS011;54120;53.504;49.426;2022-08-05T00:38:40;15.75;;;11.80;;
67191;SDS011;54120;53.504;49.426;2022-08-05T00:41:06;19.33;;;13.18;;
67191;SDS011;54120;53.504;49.426;2022-08-05T00:43:33;39.85;;;26.85;;
67191;SDS011;54120;53.504;49.426;2022-08-05T00:46:01;27.95;;;19.67;;
67191;SDS011;54120;53.504;49.426;2022-08-05T00:48:27;12.20;;;6.72;;
67191;SDS011;54120;53.504;49.426;2022-08-05T00:50:54;36.30;;;25.73;;
67191;SDS011;54120;53.504;49.426;2022-08-05T00:53:21;8.52;;;7.70;;
67191;SDS011;54120;53.504;49.426;2022-08-05T00:55:48;32.08;;;21.40;;
67191;SDS011;54120;53.504;49.426;2022-08-05T00:58:15;10.02;;;7.43;;
67191;SDS011;54120;53.504;49.426;2022-08-05T01:00:43;31.20;;;16.17;;
67191;SDS011;54120;53.504;49.426;2022-08-05T01:03:10;18.17;;;13.55;;
67191;SDS011;54120;53.504;49.426;2022-08-05T01:05:37;16.67;;;7.65;;
67191;SDS011;54120;53.504;49.426;2022-08-05T01:08:03;9.93;;;8.25;;
67191;SDS011;54120;53.504;49.426;2022-08-05T01:10:34;15.32;;;6.95;;
67191;SDS011;54120;53.504;49.426;2022-08-05T01:13:12;13.98;;;7.50;;
67191;SDS011;54120;53.504;49.426;2022-08-05T01:15:45;18.60;;;7.30;;
67191;SDS011;54120;53.504;49.426;2022-08-05T01:18:25;21.55;;;7.68;;
67191;SDS011;54120;53.504;49.426;2022-08-05T01:21:15;21.77;;;7.43;;
67191;SDS011;54120;53.504;49.426;2022-08-05T01:29:56;11.35;;;8.43;;
67191;SDS011;54120;53.504;49.426;2022-08-05T01:32:30;14.60;;;8.30;;
67191;SDS011;54120;53.504;49.426;2022-08-05T01:34:59;20.73;;;8.98;;
67191;SDS011;54120;53.504;49.426;2022-08-05T01:40:09;16.27;;;9.18;;
67191;SDS011;54120;53.504;49.426;2022-08-05T01:42:37;15.18;;;7.30;;
67191;SDS011;54120;53.504;49.426;2022-08-05T01:45:06;22.52;;;12.40;;
67191;SDS011;54120;53.504;49.426;2022-08-05T01:47:33;12.20;;;7.88;;
67191;SDS011;54120;53.504;49.426;2022-08-05T01:50:04;15.65;;;8.98;;
67191;SDS011;54120;53.504;49.426;2022-08-05T01:52:32;16.38;;;7.30;;
67191;SDS011;54120;53.504;49.426;2022-08-05T01:55:04;16.42;;;7.28;;
67191;SDS011;54120;53.504;49.426;2022-08-05T01:57:34;12.25;;;6.82;;
67191;SDS011;54120;53.504;49.426;2022-08-05T02:00:05;10.43;;;6.20;;
67191;SDS011;54120;53.504;49.426;2022-08-05T02:02:34;12.77;;;7.10;;
67191;SDS011;54120;53.504;49.426;2022-08-05T02:05:04;13.23;;;5.70;;
67191;SDS011;54120;53.504;49.426;2022-08-05T02:07:33;11.73;;;5.80;;
67191;SDS011;54120;53.504;49.426;2022-08-05T02:10:00;14.90;;;5.80;;
67191;SDS011;54120;53.504;49.426;2022-08-05T02:12:32;13.32;;;5.35;;
67191;SDS011;54120;53.504;49.426;2022-08-05T02:15:13;7.25;;;5.03;;
67191;SDS011;54120;53.504;49.426;2022-08-05T02:17:50;11.13;;;5.55;;
67191;SDS011;54120;53.504;49.426;2022-08-05T02:20:23;9.07;;;5.20;;
67191;SDS011;54120;53.504;49.426;2022-08-05T02:23:02;9.02;;;4.97;;
67191;SDS011;54120;53.504;49.426;2022-08-05T02:25:34;9.82;;;5.00;;
67191;SDS011;54120;53.504;49.426;2022-08-05T02:28:02;11.32;;;4.68;;
67191;SDS011;54120;53.504;49.426;2022-08-05T02:30:34;6.93;;;4.40;;
67191;SDS011;54120;53.504;49.426;2022-08-05T02:33:10;8.10;;;3.63;;
67191;SDS011;54120;53.504;49.426;2022-08-05T02:35:41;4.95;;;3.40;;
67191;SDS011;54120;53.504;49.426;2022-08-05T02:38:09;10.10;;;4.20;;
67191;SDS011;54120;53.504;49.426;2022-08-05T02:40:37;6.93;;;3.63;;
67191;SDS011;54120;53.504;49.426;2022-08-05T02:43:10;9.10;;;4.13;;
67191;SDS011;54120;53.504;49.426;2022-08-05T02:45:39;12.27;;;3.90;;
67191;SDS011;54120;53.504;49.426;2022-08-05T02:48:07;11.52;;;4.45;;
67191;SDS011;54120;53.504;49.426;2022-08-05T02:50:35;11.73;;;3.97;;
67191;SDS011;54120;53.504;49.426;2022-08-05T02:53:01;8.50;;;4.18;;
67191;SDS011;54120;53.504;49.426;2022-08-05T02:55:29;8.85;;;4.07;;
67191;SDS011;54120;53.504;49.426;2022-08-05T02:57:57;10.93;;;3.72;;
67191;SDS011;54120;53.504;49.426;2022-08-05T03:00:24;11.02;;;4.03;;
67191;SDS011;54120;53.504;49.426;2022-08-05T03:02:50;14.57;;;4.13;;
67191;SDS011;54120;53.504;49.426;2022-08-05T03:05:17;6.65;;;3.38;;
67191;SDS011;54120;53.504;49.426;2022-08-05T03:07:44;11.45;;;3.30;;
67191;SDS011;54120;53.504;49.426;2022-08-05T03:10:11;10.18;;;3.85;;
67191;SDS011;54120;53.504;49.426;2022-08-05T03:12:40;6.97;;;3.60;;
67191;SDS011;54120;53.504;49.426;2022-08-05T03:15:07;11.18;;;4.15;;
67191;SDS011;54120;53.504;49.426;2022-08-05T03:17:35;6.28;;;3.42;;
67191;SDS011;54120;53.504;49.426;2022-08-05T03:20:03;7.70;;;3.58;;
67191;SDS011;54120;53.504;49.426;2022-08-05T03:22:30;6.28;;;2.90;;
67191;SDS011;54120;53.504;49.426;2022-08-05T03:24:56;6.55;;;3.40;;
67191;SDS011;54120;53.504;49.426;2022-08-05T03:27:23;6.22;;;2.95;;
67191;SDS011;54120;53.504;49.426;2022-08-05T03:29:50;6.53;;;3.33;;
67191;SDS011;54120;53.504;49.426;2022-08-05T03:32:16;10.32;;;3.60;;
67191;SDS011;54120;53.504;49.426;2022-08-05T03:34:44;4.30;;;2.95;;
67191;SDS011;54120;53.504;49.426;2022-08-05T03:37:11;10.65;;;3.70;;
67191;SDS011;54120;53.504;49.426;2022-08-05T03:39:37;9.55;;;2.63;;
67191;SDS011;54120;53.504;49.426;2022-08-05T03:42:15;8.50;;;3.20;;
67191;SDS011;54120;53.504;49.426;2022-08-05T03:44:41;6.32;;;2.75;;
67191;SDS011;54120;53.504;49.426;2022-08-05T03:47:08;14.73;;;3.20;;
67191;SDS011;54120;53.504;49.426;2022-08-05T03:49:34;11.38;;;2.67;;
67191;SDS011;54120;53.504;49.426;2022-08-05T03:52:02;5.63;;;2.40;;
67191;SDS011;54120;53.504;49.426;2022-08-05T03:57:02;6.65;;;2.72;;
67191;SDS011;54120;53.504;49.426;2022-08-05T03:59:42;7.07;;;2.38;;
67191;SDS011;54120;53.504;49.426;2022-08-05T04:02:13;7.38;;;2.63;;
67191;SDS011;54120;53.504;49.426;2022-08-05T04:04:41;3.90;;;2.38;;
67191;SDS011;54120;53.504;49.426;2022-08-05T04:07:08;5.72;;;2.50;;
67191;SDS011;54120;53.504;49.426;2022-08-05T04:09:36;10.50;;;2.80;;
67191;SDS011;54120;53.504;49.426;2022-08-05T04:12:02;8.05;;;2.50;;
67191;SDS011;54120;53.504;49.426;2022-08-05T04:14:29;4.40;;;2.50;;
67191;SDS011;54120;53.504;49.426;2022-08-05T04:16:58;10.05;;;2.70;;
67191;SDS011;54120;53.504;49.426;2022-08-05T04:19:24;12.13;;;2.72;;
67191;SDS011;54120;53.504;49.426;2022-08-05T04:21:52;9.90;;;2.97;;
67191;SDS011;54120;53.504;49.426;2022-08-05T04:24:18;11.80;;;3.85;;
67191;SDS011;54120;53.504;49.426;2022-08-05T04:26:44;5.35;;;3.10;;
67191;SDS011;54120;53.504;49.426;2022-08-05T04:29:10;8.50;;;2.92;;
67191;SDS011;54120;53.504;49.426;2022-08-05T04:31:36;8.93;;;2.88;;
67191;SDS011;54120;53.504;49.426;2022-08-05T04:34:03;9.18;;;3.38;;
67191;SDS011;54120;53.504;49.426;2022-08-05T04:36:29;8.98;;;3.10;;
67191;SDS011;54120;53.504;49.426;2022-08-05T04:38:55;8.90;;;2.92;;
67191;SDS011;54120;53.504;49.426;2022-08-05T04:41:22;11.75;;;3.17;;
67191;SDS011;54120;53.504;49.426;2022-08-05T04:43:49;7.18;;;3.17;;
67191;SDS011;54120;53.504;49.426;2022-08-05T04:46:15;10.73;;;2.88;;
67191;SDS011;54120;53.504;49.426;2022-08-05T04:48:41;10.48;;;3.17;;
67191;SDS011;54120;53.504;49.426;2022-08-05T04:51:10;13.38;;;3.35;;
67191;SDS011;54120;53.504;49.426;2022-08-05T04:53:37;11.57;;;3.40;;
67191;SDS011;54120;53.504;49.426;2022-08-05T04:56:04;13.73;;;3.05;;
67191;SDS011;54120;53.504;49.426;2022-08-05T04:58:33;9.02;;;3.33;;
67191;SDS011;54120;53.504;49.426;2022-08-05T05:00:59;11.85;;;3.30;;
67191;SDS011;54120;53.504;49.426;2022-08-05T05:03:25;6.57;;;2.80;;
67191;SDS011;54120;53.504;49.426;2022-08-05T05:05:51;9.32;;;3.20;;
67191;SDS011;54120;53.504;49.426;2022-08-05T05:08:18;8.60;;;3.20;;
67191;SDS011;54120;53.504;49.426;2022-08-05T05:10:45;8.93;;;3.10;;
67191;SDS011;54120;53.504;49.426;2022-08-05T05:13:12;10.68;;;3.60;;
67191;SDS011;54120;53.504;49.426;2022-08-05T05:15:40;10.57;;;2.63;;
67191;SDS011;54120;53.504;49.426;2022-08-05T05:18:07;8.38;;;3.25;;
67191;SDS011;54120;53.504;49.426;2022-08-05T05:20:34;8.48;;;3.08;;
67191;SDS011;54120;53.504;49.426;2022-08-05T05:23:01;11.55;;;3.35;;
67191;SDS011;54120;53.504;49.426;2022-08-05T05:25:31;6.88;;;2.80;;
67191;SDS011;54120;53.504;49.426;2022-08-05T05:27:57;9.15;;;3.05;;
67191;SDS011;54120;53.504;49.426;2022-08-05T05:30:23;5.63;;;3.00;;
67191;SDS011;54120;53.504;49.426;2022-08-05T05:32:50;8.55;;;3.10;;
67191;SDS011;54120;53.504;49.426;2022-08-05T05:35:16;9.18;;;2.83;;
67191;SDS011;54120;53.504;49.426;2022-08-05T05:38:00;14.05;;;2.88;;
67191;SDS011;54120;53.504;49.426;2022-08-05T05:40:29;11.93;;;2.28;;
67191;SDS011;54120;53.504;49.426;2022-08-05T05:42:56;14.52;;;2.70;;
67191;SDS011;54120;53.504;49.426;2022-08-05T05:45:22;8.50;;;2.70;;
67191;SDS011;54120;53.504;49.426;2022-08-05T05:47:49;6.95;;;2.40;;
67191;SDS011;54120;53.504;49.426;2022-08-05T05:50:16;14.00;;;2.80;;
67191;SDS011;54120;53.504;49.426;2022-08-05T05:52:43;6.07;;;2.30;;
67191;SDS011;54120;53.504;49.426;2022-08-05T05:55:12;9.30;;;2.20;;
67191;SDS011;54120;53.504;49.426;2022-08-05T05:57:40;8.00;;;2.17;;
67191;SDS011;54120;53.504;49.426;2022-08-05T06:00:15;6.53;;;1.70;;
67191;SDS011;54120;53.504;49.426;2022-08-05T06:02:43;4.22;;;1.90;;
67191;SDS011;54120;53.504;49.426;2022-08-05T06:05:11;7.53;;;2.30;;
67191;SDS011;54120;53.504;49.426;2022-08-05T06:07:39;11.82;;;2.80;;
67191;SDS011;54120;53.504;49.426;2022-08-05T06:10:06;6.28;;;1.73;;
67191;SDS011;54120;53.504;49.426;2022-08-05T06:12:33;8.07;;;1.83;;
67191;SDS011;54120;53.504;49.426;2022-08-05T06:15:01;10.38;;;2.28;;
67191;SDS011;54120;53.504;49.426;2022-08-05T06:17:29;6.40;;;2.08;;
67191;SDS011;54120;53.504;49.426;2022-08-05T06:19:56;9.25;;;1.85;;
67191;SDS011;54120;53.504;49.426;2022-08-05T06:22:23;5.28;;;2.30;;
67191;SDS011;54120;53.504;49.426;2022-08-05T06:24:52;4.82;;;1.92;;
67191;SDS011;54120;53.504;49.426;2022-08-05T06:27:18;3.00;;;1.60;;
67191;SDS011;54120;53.504;49.426;2022-08-05T06:29:44;6.07;;;1.70;;
67191;SDS011;54120;53.504;49.426;2022-08-05T06:32:11;8.05;;;2.08;;
67191;SDS011;54120;53.504;49.426;2022-08-05T06:34:37;4.10;;;1.95;;
67191;SDS011;54120;53.504;49.426;2022-08-05T06:37:03;4.53;;;1.20;;
67191;SDS011;54120;53.504;49.426;2022-08-05T06:39:29;5.78;;;1.48;;
67191;SDS011;54120;53.504;49.426;2022-08-05T06:41:56;8.77;;;1.38;;
67191;SDS011;54120;53.504;49.426;2022-08-05T06:44:23;3.72;;;1.42;;
67191;SDS011;54120;53.504;49.426;2022-08-05T06:46:49;3.10;;;1.45;;
67191;SDS011;54120;53.504;49.426;2022-08-05T06:49:15;6.18;;;1.88;;
67191;SDS011;54120;53.504;49.426;2022-08-05T06:51:41;8.07;;;3.40;;
67191;SDS011;54120;53.504;49.426;2022-08-05T06:54:07;7.72;;;3.55;;
67191;SDS011;54120;53.504;49.426;2022-08-05T06:56:33;6.88;;;3.15;;
67191;SDS011;54120;53.504;49.426;2022-08-05T06:58:59;12.88;;;5.38;;
67191;SDS011;54120;53.504;49.426;2022-08-05T07:01:25;13.75;;;6.93;;
67191;SDS011;54120;53.504;49.426;2022-08-05T07:03:52;11.88;;;5.00;;
67191;SDS011;54120;53.504;49.426;2022-08-05T07:06:18;10.70;;;4.93;;
67191;SDS011;54120;53.504;49.426;2022-08-05T07:08:44;10.13;;;4.70;;
67191;SDS011;54120;53.504;49.426;2022-08-05T07:11:10;8.05;;;3.80;;
67191;SDS011;54120;53.504;49.426;2022-08-05T07:13:36;9.63;;;4.05;;
67191;SDS011;54120;53.504;49.426;2022-08-05T07:16:21;9.48;;;3.10;;
67191;SDS011;54120;53.504;49.426;2022-08-05T07:19:05;9.18;;;3.30;;
67191;SDS011;54120;53.504;49.426;2022-08-05T07:21:32;5.10;;;2.20;;
67191;SDS011;54120;53.504;49.426;2022-08-05T07:23:58;7.20;;;2.40;;
67191;SDS011;54120;53.504;49.426;2022-08-05T07:26:24;8.57;;;2.70;;
67191;SDS011;54120;53.504;49.426;2022-08-05T07:28:50;12.68;;;2.88;;
67191;SDS011;54120;53.504;49.426;2022-08-05T07:31:17;8.95;;;4.20;;
67191;SDS011;54120;53.504;49.426;2022-08-05T07:33:43;10.63;;;2.60;;
67191;SDS011;54120;53.504;49.426;2022-08-05T07:36:10;6.65;;;2.70;;
67191;SDS011;54120;53.504;49.426;2022-08-05T07:38:36;6.72;;;2.80;;
67191;SDS011;54120;53.504;49.426;2022-08-05T07:41:07;10.60;;;2.95;;
67191;SDS011;54120;53.504;49.426;2022-08-05T07:43:34;15.68;;;2.90;;
67191;SDS011;54120;53.504;49.426;2022-08-05T07:46:01;6.05;;;2.60;;
67191;SDS011;54120;53.504;49.426;2022-08-05T07:48:27;12.50;;;3.17;;
67191;SDS011;54120;53.504;49.426;2022-08-05T07:50:54;19.92;;;3.42;;
67191;SDS011;54120;53.504;49.426;2022-08-05T07:53:20;7.68;;;2.92;;
67191;SDS011;54120;53.504;49.426;2022-08-05T07:55:46;10.27;;;6.13;;
67191;SDS011;54120;53.504;49.426;2022-08-05T07:58:12;15.57;;;3.35;;
67191;SDS011;54120;53.504;49.426;2022-08-05T08:00:38;6.53;;;2.63;;
67191;SDS011;54120;53.504;49.426;2022-08-05T08:03:08;7.32;;;2.47;;
67191;SDS011;54120;53.504;49.426;2022-08-05T08:05:36;7.90;;;2.47;;
67191;SDS011;54120;53.504;49.426;2022-08-05T08:08:03;2.50;;;2.10;;
67191;SDS011;54120;53.504;49.426;2022-08-05T08:10:29;3.88;;;1.90;;
67191;SDS011;54120;53.504;49.426;2022-08-05T08:12:55;4.60;;;2.10;;
67191;SDS011;54120;53.504;49.426;2022-08-05T08:15:22;4.13;;;1.83;;
67191;SDS011;54120;53.504;49.426;2022-08-05T08:17:48;8.23;;;1.90;;
67191;SDS011;54120;53.504;49.426;2022-08-05T08:20:14;7.10;;;1.65;;
67191;SDS011;54120;53.504;49.426;2022-08-05T08:22:41;3.85;;;1.30;;
67191;SDS011;54120;53.504;49.426;2022-08-05T08:25:07;4.22;;;1.20;;
67191;SDS011;54120;53.504;49.426;2022-08-05T08:27:33;4.85;;;1.33;;
67191;SDS011;54120;53.504;49.426;2022-08-05T08:30:00;13.85;;;2.03;;
67191;SDS011;54120;53.504;49.426;2022-08-05T08:32:26;9.85;;;1.63;;
67191;SDS011;54120;53.504;49.426;2022-08-05T08:34:52;3.33;;;1.27;;
67191;SDS011;54120;53.504;49.426;2022-08-05T08:37:25;1.42;;;1.33;;
67191;SDS011;54120;53.504;49.426;2022-08-05T08:39:51;1.73;;;1.23;;
67191;SDS011;54120;53.504;49.426;2022-08-05T08:42:17;3.47;;;1.65;;
67191;SDS011;54120;53.504;49.426;2022-08-05T08:44:43;3.92;;;1.10;;
67191;SDS011;54120;53.504;49.426;2022-08-05T08:47:10;3.38;;;1.45;;
67191;SDS011;54120;53.504;49.426;2022-08-05T08:49:37;2.05;;;1.10;;
67191;SDS011;54120;53.504;49.426;2022-08-05T08:52:11;3.17;;;1.30;;
67191;SDS011;54120;53.504;49.426;2022-08-05T08:54:41;5.75;;;1.20;;
67191;SDS011;54120;53.504;49.426;2022-08-05T08:57:09;3.30;;;1.70;;
67191;SDS011;54120;53.504;49.426;2022-08-05T08:59:36;1.77;;;1.20;;
67191;SDS011;54120;53.504;49.426;2022-08-05T09:02:04;8.65;;;1.50;;
67191;SDS011;54120;53.504;49.426;2022-08-05T09:04:34;7.25;;;1.50;;
67191;SDS011;54120;53.504;49.426;2022-08-05T09:07:04;2.88;;;1.33;;
67191;SDS011;54120;53.504;49.426;2022-08-05T09:09:32;4.50;;;1.40;;
67191;SDS011;54120;53.504;49.426;2022-08-05T09:12:00;3.90;;;1.67;;
67191;SDS011;54120;53.504;49.426;2022-08-05T09:14:27;1.38;;;1.10;;
67191;SDS011;54120;53.504;49.426;2022-08-05T09:16:58;2.58;;;1.20;;
67191;SDS011;54120;53.504;49.426;2022-08-05T09:19:29;3.28;;;1.20;;
67191;SDS011;54120;53.504;49.426;2022-08-05T09:21:55;2.33;;;1.25;;
67191;SDS011;54120;53.504;49.426;2022-08-05T09:24:21;1.63;;;1.10;;
67191;SDS011;54120;53.504;49.426;2022-08-05T09:26:51;2.55;;;1.40;;
67191;SDS011;54120;53.504;49.426;2022-08-05T09:29:20;4.63;;;1.33;;
67191;SDS011;54120;53.504;49.426;2022-08-05T09:32:02;1.75;;;1.58;;
67191;SDS011;54120;53.504;49.426;2022-08-05T09:37:17;2.83;;;1.20;;
67191;SDS011;54120;53.504;49.426;2022-08-05T09:39:50;5.90;;;3.15;;
67191;SDS011;54120;53.504;49.426;2022-08-05T09:42:18;2.30;;;1.45;;
67191;SDS011;54120;53.504;49.426;2022-08-05T09:44:46;3.60;;;1.30;;
67191;SDS011;54120;53.504;49.426;2022-08-05T09:47:16;6.43;;;2.05;;
67191;SDS011;54120;53.504;49.426;2022-08-05T09:49:48;9.98;;;2.45;;
67191;SDS011;54120;53.504;49.426;2022-08-05T10:02:42;7.30;;;2.38;;
67191;SDS011;54120;53.504;49.426;2022-08-05T10:05:13;8.80;;;4.60;;
67191;SDS011;54120;53.504;49.426;2022-08-05T10:07:48;9.20;;;2.35;;
67191;SDS011;54120;53.504;49.426;2022-08-05T10:10:47;4.80;;;2.10;;
67191;SDS011;54120;53.504;49.426;2022-08-05T10:16:03;3.00;;;2.05;;
67191;SDS011;54120;53.504;49.426;2022-08-05T10:18:31;5.15;;;2.90;;
67191;SDS011;54120;53.504;49.426;2022-08-05T10:20:59;10.88;;;2.50;;
67191;SDS011;54120;53.504;49.426;2022-08-05T10:23:28;5.95;;;3.20;;
67191;SDS011;54120;53.504;49.426;2022-08-05T10:26:03;4.93;;;1.67;;
67191;SDS011;54120;53.504;49.426;2022-08-05T10:28:31;4.07;;;1.98;;
67191;SDS011;54120;53.504;49.426;2022-08-05T10:30:58;2.65;;;1.73;;
67191;SDS011;54120;53.504;49.426;2022-08-05T10:33:26;3.25;;;1.58;;
67191;SDS011;54120;53.504;49.426;2022-08-05T10:35:54;3.75;;;2.08;;
67191;SDS011;54120;53.504;49.426;2022-08-05T10:38:22;8.73;;;1.70;;
67191;SDS011;54120;53.504;49.426;2022-08-05T10:46:01;7.18;;;1.63;;
67191;SDS011;54120;53.504;49.426;2022-08-05T10:51:01;4.82;;;1.55;;
67191;SDS011;54120;53.504;49.426;2022-08-05T10:53:35;1.90;;;1.80;;
67191;SDS011;54120;53.504;49.426;2022-08-05T10:56:04;1.98;;;1.40;;
67191;SDS011;54120;53.504;49.426;2022-08-05T10:58:35;5.43;;;2.00;;
67191;SDS011;54120;53.504;49.426;2022-08-05T11:01:11;3.47;;;1.33;;
67191;SDS011;54120;53.504;49.426;2022-08-05T11:03:57;15.23;;;2.30;;
67191;SDS011;54120;53.504;49.426;2022-08-05T11:06:26;2.47;;;1.70;;
67191;SDS011;54120;53.504;49.426;2022-08-05T11:09:11;5.00;;;1.90;;
67191;SDS011;54120;53.504;49.426;2022-08-05T11:11:41;12.18;;;2.45;;
67191;SDS011;54120;53.504;49.426;2022-08-05T11:14:09;3.90;;;1.83;;
67191;SDS011;54120;53.504;49.426;2022-08-05T11:16:36;1.95;;;1.85;;
67191;SDS011;54120;53.504;49.426;2022-08-05T11:21:53;5.55;;;2.08;;
67191;SDS011;54120;53.504;49.426;2022-08-05T11:24:20;8.43;;;1.88;;
67191;SDS011;54120;53.504;49.426;2022-08-05T11:26:49;2.70;;;1.67;;
67191;SDS011;54120;53.504;49.426;2022-08-05T11:29:36;2.35;;;1.60;;
67191;SDS011;54120;53.504;49.426;2022-08-05T11:32:23;3.10;;;1.45;;
67191;SDS011;54120;53.504;49.426;2022-08-05T11:34:51;4.93;;;1.83;;
67191;SDS011;54120;53.504;49.426;2022-08-05T11:40:19;4.78;;;1.50;;
67191;SDS011;54120;53.504;49.426;2022-08-05T11:42:45;3.63;;;1.35;;
67191;SDS011;54120;53.504;49.426;2022-08-05T11:45:11;6.82;;;1.80;;
67191;SDS011;54120;53.504;49.426;2022-08-05T11:47:38;2.38;;;1.75;;
67191;SDS011;54120;53.504;49.426;2022-08-05T11:50:04;8.25;;;2.53;;
67191;SDS011;54120;53.504;49.426;2022-08-05T11:52:31;3.72;;;1.70;;
67191;SDS011;54120;53.504;49.426;2022-08-05T11:54:57;4.82;;;2.85;;
67191;SDS011;54120;53.504;49.426;2022-08-05T11:57:27;3.55;;;2.65;;
67191;SDS011;54120;53.504;49.426;2022-08-05T11:59:54;5.20;;;1.98;;
67191;SDS011;54120;53.504;49.426;2022-08-05T12:02:28;10.88;;;2.92;;
67191;SDS011;54120;53.504;49.426;2022-08-05T12:04:58;7.15;;;2.20;;
67191;SDS011;54120;53.504;49.426;2022-08-05T12:07:27;4.32;;;2.50;;
67191;SDS011;54120;53.504;49.426;2022-08-05T12:09:59;6.32;;;2.67;;
67191;SDS011;54120;53.504;49.426;2022-08-05T12:12:29;5.60;;;2.30;;
67191;SDS011;54120;53.504;49.426;2022-08-05T12:14:55;8.70;;;1.80;;
67191;SDS011;54120;53.504;49.426;2022-08-05T12:17:21;10.55;;;2.25;;
67191;SDS011;54120;53.504;49.426;2022-08-05T12:19:52;16.40;;;2.33;;
67191;SDS011;54120;53.504;49.426;2022-08-05T12:22:20;11.57;;;3.60;;
67191;SDS011;54120;53.504;49.426;2022-08-05T12:24:51;8.02;;;2.40;;
67191;SDS011;54120;53.504;49.426;2022-08-05T12:27:21;6.07;;;2.03;;
67191;SDS011;54120;53.504;49.426;2022-08-05T12:29:58;3.70;;;2.10;;
67191;SDS011;54120;53.504;49.426;2022-08-05T12:32:27;8.30;;;2.35;;
67191;SDS011;54120;53.504;49.426;2022-08-05T12:34:53;6.97;;;2.38;;
67191;SDS011;54120;53.504;49.426;2022-08-05T12:37:19;4.50;;;1.90;;
67191;SDS011;54120;53.504;49.426;2022-08-05T12:39:46;12.35;;;2.90;;
67191;SDS011;54120;53.504;49.426;2022-08-05T12:42:16;5.45;;;2.85;;
67191;SDS011;54120;53.504;49.426;2022-08-05T12:44:43;5.90;;;2.67;;
67191;SDS011;54120;53.504;49.426;2022-08-05T12:47:11;11.23;;;3.47;;
67191;SDS011;54120;53.504;49.426;2022-08-05T12:49:39;5.32;;;3.10;;
67191;SDS011;54120;53.504;49.426;2022-08-05T12:52:10;6.55;;;2.95;;
67191;SDS011;54120;53.504;49.426;2022-08-05T12:54:42;6.03;;;2.63;;
67191;SDS011;54120;53.504;49.426;2022-08-05T12:57:10;8.75;;;2.95;;
67191;SDS011;54120;53.504;49.426;2022-08-05T12:59:50;2.80;;;2.28;;
67191;SDS011;54120;53.504;49.426;2022-08-05T13:02:19;6.00;;;2.80;;
67191;SDS011;54120;53.504;49.426;2022-08-05T13:04:47;5.40;;;2.75;;
67191;SDS011;54120;53.504;49.426;2022-08-05T13:07:16;17.58;;;12.43;;
67191;SDS011;54120;53.504;49.426;2022-08-05T13:09:51;9.43;;;3.25;;
67191;SDS011;54120;53.504;49.426;2022-08-05T13:12:21;6.85;;;2.95;;
67191;SDS011;54120;53.504;49.426;2022-08-05T13:14:55;7.47;;;2.78;;
67191;SDS011;54120;53.504;49.426;2022-08-05T13:17:27;7.25;;;3.00;;
67191;SDS011;54120;53.504;49.426;2022-08-05T13:22:30;14.88;;;2.60;;
67191;SDS011;54120;53.504;49.426;2022-08-05T13:25:05;4.45;;;2.60;;
67191;SDS011;54120;53.504;49.426;2022-08-05T13:30:04;21.70;;;15.05;;
67191;SDS011;54120;53.504;49.426;2022-08-05T13:32:33;17.08;;;5.50;;
67191;SDS011;54120;53.504;49.426;2022-08-05T13:34:59;6.47;;;2.67;;
67191;SDS011;54120;53.504;49.426;2022-08-05T13:37:25;10.27;;;3.58;;
67191;SDS011;54120;53.504;49.426;2022-08-05T13:39:52;4.25;;;2.67;;
67191;SDS011;54120;53.504;49.426;2022-08-05T13:42:18;5.00;;;2.13;;
67191;SDS011;54120;53.504;49.426;2022-08-05T13:44:46;4.13;;;2.20;;
67191;SDS011;54120;53.504;49.426;2022-08-05T13:47:15;19.63;;;2.53;;
67191;SDS011;54120;53.504;49.426;2022-08-05T13:49:42;4.00;;;2.90;;
67191;SDS011;54120;53.504;49.426;2022-08-05T13:52:12;2.90;;;2.00;;
67191;SDS011;54120;53.504;49.426;2022-08-05T13:57:09;5.88;;;2.30;;
67191;SDS011;54120;53.504;49.426;2022-08-05T13:59:36;11.23;;;2.92;;
67191;SDS011;54120;53.504;49.426;2022-08-05T14:02:04;15.65;;;3.55;;
67191;SDS011;54120;53.504;49.426;2022-08-05T14:04:33;8.30;;;2.85;;
67191;SDS011;54120;53.504;49.426;2022-08-05T14:07:23;5.93;;;2.38;;
67191;SDS011;54120;53.504;49.426;2022-08-05T14:09:51;7.30;;;3.05;;
67191;SDS011;54120;53.504;49.426;2022-08-05T14:12:17;7.65;;;2.63;;
67191;SDS011;54120;53.504;49.426;2022-08-05T14:14:44;4.90;;;3.25;;
67191;SDS011;54120;53.504;49.426;2022-08-05T14:17:10;9.75;;;2.30;;
67191;SDS011;54120;53.504;49.426;2022-08-05T14:19:39;9.10;;;3.53;;
67191;SDS011;54120;53.504;49.426;2022-08-05T14:22:05;8.02;;;3.13;;
67191;SDS011;54120;53.504;49.426;2022-08-05T14:24:32;7.80;;;2.72;;
67191;SDS011;54120;53.504;49.426;2022-08-05T14:27:01;6.55;;;2.83;;
67191;SDS011;54120;53.504;49.426;2022-08-05T14:29:27;9.13;;;2.47;;
67191;SDS011;54120;53.504;49.426;2022-08-05T14:31:54;10.48;;;2.33;;
67191;SDS011;54120;53.504;49.426;2022-08-05T14:34:20;4.60;;;2.20;;
67191;SDS011;54120;53.504;49.426;2022-08-05T14:36:46;6.50;;;2.58;;
67191;SDS011;54120;53.504;49.426;2022-08-05T14:39:12;13.65;;;2.95;;
67191;SDS011;54120;53.504;49.426;2022-08-05T14:41:39;8.95;;;2.78;;
67191;SDS011;54120;53.504;49.426;2022-08-05T14:44:05;7.18;;;3.42;;
67191;SDS011;54120;53.504;49.426;2022-08-05T14:46:31;3.97;;;2.20;;
67191;SDS011;54120;53.504;49.426;2022-08-05T14:48:58;14.48;;;3.38;;
67191;SDS011;54120;53.504;49.426;2022-08-05T14:51:25;9.77;;;3.30;;
67191;SDS011;54120;53.504;49.426;2022-08-05T14:53:52;8.73;;;2.78;;
67191;SDS011;54120;53.504;49.426;2022-08-05T14:56:18;4.28;;;2.50;;
67191;SDS011;54120;53.504;49.426;2022-08-05T14:58:44;5.80;;;2.50;;
67191;SDS011;54120;53.504;49.426;2022-08-05T15:01:11;5.35;;;2.40;;
67191;SDS011;54120;53.504;49.426;2022-08-05T15:03:37;6.55;;;3.22;;
67191;SDS011;54120;53.504;49.426;2022-08-05T15:06:03;4.63;;;2.40;;
67191;SDS011;54120;53.504;49.426;2022-08-05T15:08:30;4.60;;;2.40;;
67191;SDS011;54120;53.504;49.426;2022-08-05T15:10:56;6.63;;;2.70;;
67191;SDS011;54120;53.504;49.426;2022-08-05T15:13:25;5.25;;;3.13;;
67191;SDS011;54120;53.504;49.426;2022-08-05T15:15:51;4.78;;;3.03;;
67191;SDS011;54120;53.504;49.426;2022-08-05T15:18:20;7.72;;;2.63;;
67191;SDS011;54120;53.504;49.426;2022-08-05T15:20:47;8.35;;;2.80;;
67191;SDS011;54120;53.504;49.426;2022-08-05T15:23:13;4.07;;;2.70;;
67191;SDS011;54120;53.504;49.426;2022-08-05T15:25:40;4.00;;;2.67;;